Overview Statistics Trail Chart Weather Telemetry Raw packets
 

This is the latest recevied weather packets stored in our database for station/object WW5JC. If no packets are shown the sender has not sent any weather packets the latest 10 day(s).

<< 50 51 52 53 54 55 56 >>
Time Temp. Humidity Pressure Rain* Wind** Luminosity Snow
1788288766 36.11° C 44% 1017.6 hPa 0 mm - 690 W/m² -
1788288461 36.11° C 46% 1017.9 hPa 0 mm - 699 W/m² -
1788288156 35.56° C 47% 1018.1 hPa 0 mm - 642 W/m² -
1788287852 35.56° C 46% 1018 hPa 0 mm - 657 W/m² -
1788287551 35.56° C 47% 1018.1 hPa 0 mm - 721 W/m² -
1788287247 36.11° C 46% 1018.4 hPa 0 mm - 708 W/m² -
1788286946 35.56° C 45% 1018.4 hPa 0 mm - 702 W/m² -
1788286641 35.56° C 46% 1018.6 hPa 0 mm - 695 W/m² -
1788286335 35° C 48% 1018.7 hPa 0 mm - 718 W/m² -
1788286034 34.44° C 51% 1018.7 hPa 0 mm - 202 W/m² -
1788285730 35.56° C 50% 1018.9 hPa 0 mm - 308 W/m² -
1788285429 35.56° C 47% 1019 hPa 0 mm - 737 W/m² -
1788285129 35.56° C 45% 1018.8 hPa 0 mm - 727 W/m² -
1788284824 35° C 48% 1019.1 hPa 0 mm - 717 W/m² -
1788284520 36.11° C 47% 1019 hPa 0 mm - 678 W/m² -
1788284215 35.56° C 49% 1019 hPa 0 mm - 691 W/m² -
1788283910 35° C 49% 1019.2 hPa 0 mm - 681 W/m² -
1788283606 35° C 48% 1019.2 hPa 0 mm - 696 W/m² -
1788283298 35° C 50% 1019.4 hPa 0 mm - 679 W/m² -
1788282998 35° C 51% 1019.4 hPa 0 mm - 666 W/m² -
1788282697 34.44° C 51% 1019.5 hPa 0 mm - 653 W/m² -
1788282391 35° C 51% 1019.5 hPa 0 mm - 640 W/m² -
1788282086 35° C 51% 1019.4 hPa 0 mm - 641 W/m² -
1788281785 33.89° C 52% 1019.5 hPa 0 mm - 645 W/m² -
1788281480 33.89° C 54% 1019.3 hPa 0 mm - 633 W/m² -

* Rain latest hour (hover to see other rain measurements)
** Current wind speed in m/s (hover to see current wind gust speed)